AFR182 LFPG-WSSS
Flight info
| Callsign | AFR182 |
|---|---|
| Flight time | N/A |
| Altitude | 29000 |
| Route | LANVI DCT BEGAR DCT TRA DCT GAMSA DCT GEDSO DCT LUMUS DCT BERTA DCT OKLOP DCT ETIDA DCT RIXEN/N0491F310 UA17 YAVRU UL615 BUK UW71 TBN UN61 NOLGA N61 LAGAS M747 LUSAL N701 LARGI B701 TUGTA A909 BABUM A477 RINIB/N0496F330 A477 POGON/K0917F330 T388 BUPOR Y92 OGNOB Z514 USETU Z407 BUTRA L181 POMIR Z407 FIRUZ/N0501F330 P500 MOTMO/N0502F320 P500 GERRY/N0501F330 P500 ATROL/N0505F320 P500 PS/N0507F330 T400 SULOM A466 DPN L759 ONATI/N0499F350 L759 PUT B579 VPL Y503 RINBA Y507 MAKNA Y511 TOPOR A464 ARAMA DCT TEBUN TEBUN1A |
| Aircraft | B77W/H-SDE1E2E3FGHIJ2J3J4J5M1RWXY/LB1D1 |
Departure
| Time | 2026-05-01 10:54 |
|---|---|
| Airport | Charles de Gaulle International Airport (LFPG) |
Arrival
| Time | N/A |
|---|---|
| Airport | Singapore Changi Airport (WSSS) |
| Time | Latitude | Longitude | Altitude | Speed | Heading |
|---|---|---|---|---|---|
| 2026-05-01 10:27 | 49.00140 | 2.57823 | 362 ft | 0 kts | 356° |
| 2026-05-01 10:42 | 49.00125 | 2.57825 | 362 ft | 2 kts | 359° |
| 2026-05-01 10:42 | 49.00108 | 2.57825 | 358 ft | 2 kts | 1° |
| 2026-05-01 10:42 | 49.00092 | 2.57823 | 358 ft | 2 kts | 7° |
| 2026-05-01 10:43 | 49.00075 | 2.57818 | 361 ft | 2 kts | 28° |
| 2026-05-01 10:43 | 49.00065 | 2.57799 | 367 ft | 2 kts | 87° |
| 2026-05-01 10:43 | 49.00064 | 2.57774 | 364 ft | 2 kts | 85° |
| 2026-05-01 10:43 | 49.00063 | 2.57749 | 365 ft | 2 kts | 85° |
| 2026-05-01 10:44 | 49.00062 | 2.57724 | 364 ft | 2 kts | 85° |
| 2026-05-01 10:44 | 49.00060 | 2.57699 | 365 ft | 2 kts | 85° |
| 2026-05-01 10:44 | 49.00059 | 2.57674 | 366 ft | 2 kts | 85° |
| 2026-05-01 10:44 | 49.00058 | 2.57649 | 362 ft | 2 kts | 85° |
| 2026-05-01 10:45 | 49.00056 | 2.57624 | 361 ft | 2 kts | 85° |
| 2026-05-01 10:45 | 49.00055 | 2.57603 | 358 ft | 1 kts | 85° |
| 2026-05-01 10:45 | 49.00055 | 2.57598 | 358 ft | 0 kts | 85° |
| 2026-05-01 10:46 | 49.00055 | 2.57599 | 358 ft | 1 kts | 85° |
| 2026-05-01 10:46 | 49.00058 | 2.57649 | 362 ft | 8 kts | 85° |
| 2026-05-01 10:47 | 49.00047 | 2.57723 | 367 ft | 8 kts | 140° |
| 2026-05-01 10:47 | 48.99989 | 2.57695 | 366 ft | 11 kts | 245° |
| 2026-05-01 10:47 | 48.99974 | 2.57579 | 365 ft | 12 kts | 265° |
| 2026-05-01 10:47 | 48.99966 | 2.57449 | 359 ft | 12 kts | 265° |
| 2026-05-01 10:48 | 48.99959 | 2.57320 | 367 ft | 12 kts | 266° |
| 2026-05-01 10:48 | 48.99953 | 2.57190 | 362 ft | 12 kts | 266° |
| 2026-05-01 10:48 | 48.99947 | 2.57061 | 365 ft | 12 kts | 266° |
| 2026-05-01 10:48 | 48.99938 | 2.56931 | 361 ft | 13 kts | 264° |
| 2026-05-01 10:49 | 48.99931 | 2.56794 | 359 ft | 14 kts | 266° |
| 2026-05-01 10:49 | 48.99924 | 2.56641 | 360 ft | 15 kts | 266° |
| 2026-05-01 10:49 | 48.99915 | 2.56492 | 366 ft | 14 kts | 265° |
| 2026-05-01 10:49 | 48.99907 | 2.56347 | 359 ft | 14 kts | 265° |
| 2026-05-01 10:50 | 48.99900 | 2.56203 | 362 ft | 14 kts | 265° |
| 2026-05-01 10:50 | 48.99892 | 2.56060 | 359 ft | 14 kts | 265° |
| 2026-05-01 10:50 | 48.99897 | 2.55916 | 359 ft | 14 kts | 280° |
| 2026-05-01 10:50 | 48.99868 | 2.55803 | 364 ft | 13 kts | 198° |
| 2026-05-01 10:51 | 48.99777 | 2.55803 | 366 ft | 13 kts | 176° |
| 2026-05-01 10:51 | 48.99716 | 2.55810 | 360 ft | 0 kts | 175° |
| 2026-05-01 10:51 | 48.99691 | 2.55814 | 362 ft | 13 kts | 175° |
| 2026-05-01 10:52 | 48.99612 | 2.55832 | 360 ft | 10 kts | 140° |
| 2026-05-01 10:52 | 48.99605 | 2.55911 | 360 ft | 0 kts | 87° |
| 2026-05-01 10:52 | 48.99605 | 2.55924 | 364 ft | 8 kts | 87° |
| 2026-05-01 10:53 | 48.99625 | 2.56317 | 367 ft | 71 kts | 85° |
| 2026-05-01 10:53 | 48.99683 | 2.57419 | 356 ft | 136 kts | 85° |
| 2026-05-01 10:53 | 48.99775 | 2.59143 | 368 ft | 188 kts | 85° |
| 2026-05-01 10:53 | 48.99880 | 2.61207 | 662 ft | 199 kts | 86° |
| 2026-05-01 10:54 | 49.00002 | 2.63343 | 1187 ft | 203 kts | 86° |
| 2026-05-01 10:54 | 49.00119 | 2.65452 | 1921 ft | 200 kts | 86° |
| 2026-05-01 10:54 | 49.00231 | 2.67604 | 2323 ft | 209 kts | 88° |
| 2026-05-01 10:54 | 49.00343 | 2.69831 | 2564 ft | 222 kts | 88° |
| 2026-05-01 10:55 | 49.00463 | 2.72263 | 2734 ft | 240 kts | 87° |